BAW658 EGLL-LGKF
Flight info
| Callsign | BAW658 |
|---|---|
| Flight time | N/A |
| Altitude | 35000 |
| Route | DET2G DET L6 DVR UL9 KONAN UL607 REMBA DCT LIRSU DCT NONKO DCT VIBOM DCT NOMBO DCT RIDAR DCT RADIZ DCT RILIM DCT AIOSA DCT LATAN UM872 ASTUS ASTUS1P |
| Aircraft | A320/M-SDE3FGIJ1KRWXY/SB1 |
Departure
| Time | N/A |
|---|---|
| Airport | London Heathrow Airport (EGLL) |
Arrival
| Time | 2026-05-04 12:18 |
|---|---|
| Airport | Kefallinia Airport (LGKF) |
| Time | Latitude | Longitude | Altitude | Speed | Heading |
|---|---|---|---|---|---|
| 2026-05-04 11:36 | 44.11461 | 15.75835 | 35044 ft | 474 kts | 153° |
| 2026-05-04 11:36 | 44.08467 | 15.78067 | 35064 ft | 472 kts | 153° |
| 2026-05-04 11:37 | 44.02676 | 15.82367 | 35147 ft | 472 kts | 153° |
| 2026-05-04 11:37 | 43.91340 | 15.90782 | 35141 ft | 472 kts | 153° |
| 2026-05-04 11:38 | 43.68119 | 16.07898 | 35148 ft | 473 kts | 154° |
| 2026-05-04 11:38 | 43.44817 | 16.24940 | 35165 ft | 475 kts | 154° |
| 2026-05-04 11:39 | 43.21397 | 16.41897 | 35159 ft | 476 kts | 154° |
| 2026-05-04 11:41 | 42.67025 | 16.80728 | 35158 ft | 480 kts | 154° |
| 2026-05-04 11:41 | 42.61031 | 16.84691 | 35163 ft | 479 kts | 158° |
| 2026-05-04 11:42 | 42.54903 | 16.88262 | 35165 ft | 479 kts | 159° |
| 2026-05-04 11:42 | 42.48756 | 16.91766 | 35163 ft | 480 kts | 159° |
| 2026-05-04 11:43 | 42.27304 | 17.04548 | 35160 ft | 481 kts | 158° |
| 2026-05-04 11:43 | 42.02756 | 17.19014 | 35150 ft | 482 kts | 158° |
| 2026-05-04 11:44 | 41.78526 | 17.34710 | 35159 ft | 485 kts | 153° |
| 2026-05-04 11:44 | 41.54485 | 17.51310 | 35158 ft | 487 kts | 154° |
| 2026-05-04 11:45 | 41.30323 | 17.67801 | 35166 ft | 489 kts | 154° |
| 2026-05-04 11:45 | 41.06048 | 17.84263 | 35167 ft | 491 kts | 154° |
| 2026-05-04 11:46 | 40.81631 | 18.00661 | 35178 ft | 493 kts | 154° |
| 2026-05-04 11:46 | 40.56940 | 18.17106 | 35174 ft | 494 kts | 154° |
| 2026-05-04 11:47 | 40.32375 | 18.33346 | 35157 ft | 495 kts | 155° |
| 2026-05-04 11:47 | 40.16177 | 18.43964 | 35156 ft | 496 kts | 155° |
| 2026-05-04 11:48 | 40.10013 | 18.47999 | 35154 ft | 496 kts | 155° |
| 2026-05-04 11:48 | 40.03836 | 18.52026 | 35161 ft | 496 kts | 155° |
| 2026-05-04 11:49 | 39.97654 | 18.56041 | 35158 ft | 497 kts | 155° |
| 2026-05-04 11:49 | 39.91467 | 18.60057 | 35159 ft | 497 kts | 155° |
| 2026-05-04 11:50 | 39.85277 | 18.64081 | 35154 ft | 497 kts | 155° |
| 2026-05-04 11:50 | 39.80123 | 18.67422 | 35152 ft | 498 kts | 155° |
| 2026-05-04 11:51 | 39.73881 | 18.71457 | 35154 ft | 498 kts | 155° |
| 2026-05-04 11:51 | 39.67661 | 18.75456 | 35159 ft | 499 kts | 155° |
| 2026-05-04 11:52 | 39.61432 | 18.79460 | 35161 ft | 500 kts | 155° |
| 2026-05-04 11:52 | 39.55203 | 18.83473 | 35162 ft | 500 kts | 155° |
| 2026-05-04 11:53 | 39.48969 | 18.87477 | 35162 ft | 500 kts | 155° |
| 2026-05-04 11:53 | 39.42730 | 18.91468 | 35163 ft | 500 kts | 155° |
| 2026-05-04 11:55 | 39.20177 | 19.11969 | 35152 ft | 502 kts | 134° |
| 2026-05-04 11:56 | 39.15239 | 19.18356 | 35153 ft | 503 kts | 134° |
| 2026-05-04 11:56 | 39.10265 | 19.24776 | 35154 ft | 503 kts | 134° |
| 2026-05-04 11:57 | 39.05323 | 19.31168 | 35157 ft | 504 kts | 134° |
| 2026-05-04 11:57 | 39.00373 | 19.37565 | 35160 ft | 504 kts | 134° |
| 2026-05-04 11:58 | 38.95416 | 19.43942 | 35162 ft | 505 kts | 134° |
| 2026-05-04 11:58 | 38.92922 | 19.47148 | 34548 ft | 510 kts | 134° |
| 2026-05-04 11:58 | 38.90390 | 19.50405 | 33248 ft | 521 kts | 134° |
| 2026-05-04 11:58 | 38.87829 | 19.53694 | 32363 ft | 519 kts | 134° |
| 2026-05-04 11:59 | 38.85282 | 19.56960 | 31673 ft | 514 kts | 134° |
| 2026-05-04 11:59 | 38.82775 | 19.60174 | 31060 ft | 507 kts | 133° |
| 2026-05-04 11:59 | 38.80296 | 19.63349 | 30415 ft | 501 kts | 133° |
| 2026-05-04 11:59 | 38.77843 | 19.66484 | 29730 ft | 495 kts | 133° |
| 2026-05-04 12:00 | 38.75414 | 19.69577 | 29131 ft | 490 kts | 133° |
| 2026-05-04 12:00 | 38.73001 | 19.72650 | 28502 ft | 488 kts | 133° |
| 2026-05-04 12:00 | 38.70600 | 19.75705 | 27872 ft | 486 kts | 133° |
| 2026-05-04 12:00 | 38.68175 | 19.78788 | 27260 ft | 483 kts | 133° |
| 2026-05-04 12:01 | 38.65799 | 19.81806 | 26647 ft | 481 kts | 133° |
| 2026-05-04 12:01 | 38.63425 | 19.84821 | 26047 ft | 479 kts | 133° |
| 2026-05-04 12:02 | 38.49508 | 20.02445 | 22670 ft | 457 kts | 133° |
| 2026-05-04 12:03 | 38.47254 | 20.05274 | 22148 ft | 453 kts | 135° |
| 2026-05-04 12:03 | 38.44704 | 20.07597 | 21628 ft | 451 kts | 153° |
| 2026-05-04 12:03 | 38.41747 | 20.08825 | 21079 ft | 446 kts | 172° |
| 2026-05-04 12:03 | 38.38648 | 20.08822 | 20166 ft | 446 kts | 195° |
| 2026-05-04 12:04 | 38.35808 | 20.07521 | 19866 ft | 427 kts | 213° |
| 2026-05-04 12:04 | 38.33282 | 20.05587 | 19312 ft | 423 kts | 215° |
| 2026-05-04 12:04 | 38.30691 | 20.03825 | 18785 ft | 423 kts | 211° |
| 2026-05-04 12:04 | 38.28034 | 20.02256 | 18272 ft | 421 kts | 207° |
| 2026-05-04 12:05 | 38.25327 | 20.00871 | 17800 ft | 417 kts | 204° |
| 2026-05-04 12:05 | 38.22573 | 19.99707 | 17227 ft | 416 kts | 199° |
| 2026-05-04 12:05 | 38.19779 | 19.98802 | 16649 ft | 415 kts | 194° |
| 2026-05-04 12:05 | 38.16956 | 19.98168 | 16156 ft | 411 kts | 190° |
| 2026-05-04 12:06 | 38.14116 | 19.97802 | 15687 ft | 407 kts | 185° |
| 2026-05-04 12:06 | 38.11285 | 19.97689 | 15104 ft | 406 kts | 181° |
| 2026-05-04 12:06 | 38.08484 | 19.97807 | 14682 ft | 400 kts | 177° |
| 2026-05-04 12:06 | 38.05694 | 19.98147 | 13949 ft | 394 kts | 172° |
| 2026-05-04 12:07 | 38.03134 | 19.99137 | 13393 ft | 377 kts | 152° |
| 2026-05-04 12:07 | 38.01055 | 20.01021 | 12879 ft | 363 kts | 132° |
| 2026-05-04 12:07 | 37.99582 | 20.03570 | 12370 ft | 356 kts | 113° |
| 2026-05-04 12:07 | 37.98824 | 20.06509 | 11871 ft | 348 kts | 94° |
| 2026-05-04 12:08 | 37.98732 | 20.09534 | 11379 ft | 341 kts | 82° |
| 2026-05-04 12:08 | 37.99120 | 20.12474 | 10883 ft | 336 kts | 70° |
| 2026-05-04 12:08 | 37.99920 | 20.15220 | 10456 ft | 330 kts | 63° |
| 2026-05-04 12:08 | 38.00783 | 20.17870 | 10314 ft | 319 kts | 64° |
| 2026-05-04 12:09 | 38.01604 | 20.20425 | 10172 ft | 309 kts | 64° |
| 2026-05-04 12:09 | 38.02401 | 20.22907 | 10021 ft | 295 kts | 63° |
| 2026-05-04 12:09 | 38.03032 | 20.25318 | 9943 ft | 290 kts | 77° |
| 2026-05-04 12:09 | 38.02944 | 20.27916 | 9425 ft | 303 kts | 103° |
| 2026-05-04 12:10 | 38.01897 | 20.30252 | 9000 ft | 310 kts | 132° |
| 2026-05-04 12:10 | 38.00224 | 20.31985 | 8604 ft | 311 kts | 141° |
| 2026-05-04 12:10 | 37.98564 | 20.33746 | 8201 ft | 311 kts | 135° |
| 2026-05-04 12:10 | 37.97069 | 20.35729 | 7798 ft | 311 kts | 128° |
| 2026-05-04 12:11 | 37.95786 | 20.37930 | 7400 ft | 310 kts | 120° |
| 2026-05-04 12:11 | 37.94745 | 20.40292 | 7007 ft | 303 kts | 112° |
| 2026-05-04 12:11 | 37.93955 | 20.42711 | 6623 ft | 292 kts | 105° |
| 2026-05-04 12:11 | 37.93395 | 20.45139 | 6235 ft | 282 kts | 99° |
| 2026-05-04 12:12 | 37.93055 | 20.47532 | 5877 ft | 272 kts | 93° |
| 2026-05-04 12:12 | 37.92917 | 20.49881 | 5534 ft | 262 kts | 87° |
| 2026-05-04 12:12 | 37.92962 | 20.52142 | 5208 ft | 253 kts | 81° |
| 2026-05-04 12:12 | 37.93171 | 20.54340 | 4878 ft | 243 kts | 76° |
| 2026-05-04 12:13 | 37.93517 | 20.56387 | 4567 ft | 233 kts | 70° |
| 2026-05-04 12:14 | 38.00116 | 20.60366 | 2702 ft | 177 kts | 324° |
| 2026-05-04 12:15 | 38.01115 | 20.59485 | 2463 ft | 173 kts | 324° |
| 2026-05-04 12:15 | 38.02097 | 20.58620 | 2221 ft | 169 kts | 324° |
| 2026-05-04 12:15 | 38.03032 | 20.57797 | 2017 ft | 158 kts | 323° |
| 2026-05-04 12:15 | 38.03892 | 20.57040 | 1817 ft | 146 kts | 323° |
| 2026-05-04 12:16 | 38.04709 | 20.56319 | 1616 ft | 141 kts | 322° |
| 2026-05-04 12:16 | 38.05509 | 20.55611 | 1429 ft | 140 kts | 322° |
| 2026-05-04 12:16 | 38.06301 | 20.54909 | 1245 ft | 138 kts | 322° |
| 2026-05-04 12:16 | 38.07086 | 20.54211 | 1057 ft | 138 kts | 322° |
| 2026-05-04 12:17 | 38.07877 | 20.53518 | 860 ft | 139 kts | 322° |
| 2026-05-04 12:17 | 38.08696 | 20.52838 | 694 ft | 142 kts | 324° |
| 2026-05-04 12:17 | 38.09519 | 20.52129 | 491 ft | 144 kts | 323° |
| 2026-05-04 12:17 | 38.10358 | 20.51427 | 301 ft | 144 kts | 326° |
| 2026-05-04 12:18 | 38.11191 | 20.50748 | 115 ft | 141 kts | 322° |
| 2026-05-04 12:18 | 38.11959 | 20.50085 | 49 ft | 116 kts | 325° |
| 2026-05-04 12:18 | 38.12389 | 20.49727 | 47 ft | 45 kts | 326° |
| 2026-05-04 12:18 | 38.12623 | 20.49526 | 43 ft | 36 kts | 326° |
| 2026-05-04 12:19 | 38.12806 | 20.49375 | 39 ft | 24 kts | 326° |
| 2026-05-04 12:19 | 38.12899 | 20.49353 | 39 ft | 11 kts | 325° |
| 2026-05-04 12:19 | 38.12889 | 20.49312 | 38 ft | 5 kts | 179° |
| 2026-05-04 12:19 | 38.12850 | 20.49345 | 38 ft | 8 kts | 150° |
| 2026-05-04 12:20 | 38.12802 | 20.49380 | 40 ft | 8 kts | 150° |
| 2026-05-04 12:20 | 38.12747 | 20.49422 | 41 ft | 11 kts | 143° |
| 2026-05-04 12:20 | 38.12673 | 20.49489 | 42 ft | 15 kts | 145° |
| 2026-05-04 12:20 | 38.12611 | 20.49542 | 44 ft | 17 kts | 147° |
| 2026-05-04 12:21 | 38.12498 | 20.49629 | 46 ft | 21 kts | 147° |
| 2026-05-04 12:21 | 38.12368 | 20.49743 | 48 ft | 25 kts | 146° |
| 2026-05-04 12:21 | 38.12213 | 20.49873 | 48 ft | 29 kts | 147° |
| 2026-05-04 12:21 | 38.12042 | 20.50014 | 49 ft | 31 kts | 147° |
| 2026-05-04 12:22 | 38.11886 | 20.50150 | 51 ft | 14 kts | 126° |
| 2026-05-04 12:22 | 38.11892 | 20.50222 | 51 ft | 6 kts | 79° |
| 2026-05-04 12:22 | 38.11891 | 20.50282 | 53 ft | 7 kts | 90° |
| 2026-05-04 12:22 | 38.11867 | 20.50335 | 53 ft | 8 kts | 143° |
| 2026-05-04 12:23 | 38.11862 | 20.50363 | 53 ft | 2 kts | 50° |
| 2026-05-04 12:23 | 38.11870 | 20.50381 | 53 ft | 3 kts | 59° |
| 2026-05-04 12:23 | 38.11882 | 20.50407 | 53 ft | 4 kts | 58° |
| 2026-05-04 12:23 | 38.11895 | 20.50432 | 51 ft | 0 kts | 57° |